Flight Track Log - Related Links

Times and Time Zones

All times are in EDT time to prevent confusion due to time zone crossing. See the JUS327 flight status page for this flight to view local times or setup timezone preferences in your user account.

Time Position Orientation Groundspeed Altitude Reporting Facility
EDT Latitude Longitude Course Direction KTS MPH feet Rate Location/Type
Mon 10:01:34 PM 38.0158 -84.6278 221° Southwest 162 186 2,200  Level Indianapolis Center
Mon 10:02:35 PM 37.9661 -84.6817 221° Southwest 201 231 3,900 1,918 Climbing Indianapolis Center
Mon 10:03:36 PM 37.9100 -84.7369 218° Southwest 221 254 6,100 2,557 Climbing Indianapolis Center
Mon 10:04:37 PM 37.8611 -84.8158 232° Southwest 285 328 9,100 2,754 Climbing Indianapolis Center
Mon 10:05:38 PM 37.8142 -84.9039 236° Southwest 299 344 11,700 2,459 Climbing Indianapolis Center
Mon 10:06:39 PM 37.7642 -84.9950 235° Southwest 313 360 14,100 1,756 Climbing Indianapolis Center
Mon 10:07:41 PM 37.7092 -85.0928 235° Southwest 335 386 15,300 1,415 Climbing Indianapolis Center
Mon 10:08:42 PM 37.6500 -85.2089 237° Southwest 384 442 17,000 1,820 Climbing Indianapolis Center
Mon 10:09:43 PM 37.5911 -85.3303 239° Southwest 400 460 19,000 1,820 Climbing Indianapolis Center
Mon 10:10:44 PM 37.5267 -85.4553 237° Southwest 421 484 20,700 1,623 Climbing Indianapolis Center
Mon 10:11:45 PM 37.4553 -85.5861 236° Southwest 433 498 22,300 1,623 Climbing Indianapolis Center
Mon 10:12:46 PM 37.3839 -85.7161 235° Southwest 447 514 24,000 1,570 Climbing Indianapolis Center
Mon 10:13:32 PM 37.3303 -85.8236 238° Southwest 450 518 25,100 1,229 Climbing Memphis Center
Mon 10:15:32 PM 37.1836 -86.0975 236° Southwest 481 554 27,400 1,133 Climbing Memphis Center
Mon 10:16:32 PM 37.1092 -86.2367 236° Southwest 486 559 28,500 1,050 Climbing Memphis Center
Mon 10:17:32 PM 37.0306 -86.3811 236° Southwest 506 582 29,500 900 Climbing Memphis Center
Mon 10:18:32 PM 36.9519 -86.5278 236° Southwest 506 582 30,300 950 Climbing Memphis Center
Mon 10:19:32 PM 36.8711 -86.6769 236° Southwest 512 589 31,400 1,900 Climbing Memphis Center
Mon 10:20:32 PM 36.7878 -86.8258 235° Southwest 512 589 34,100 1,300 Climbing Memphis Center
Mon 10:21:32 PM 36.7125 -86.9611 235° Southwest 488 562 34,000  Descending Memphis Center
Mon 10:22:32 PM 36.6347 -87.0964 234° Southwest 483 556 34,100 50 Climbing Memphis Center
Mon 10:23:32 PM 36.5569 -87.2339 235° Southwest 483 556 34,100 -50 Level Memphis Center
Mon 10:24:32 PM 36.4814 -87.3761 237° Southwest 488 562 34,000 -50 Descending Memphis Center
Mon 10:25:32 PM 36.4031 -87.5131 235° Southwest 493 567 34,000  Level Memphis Center
Mon 10:26:32 PM 36.3269 -87.6469 235° Southwest 488 562 34,000 50 Level Memphis Center
Mon 10:27:32 PM 36.2508 -87.7858 236° Southwest 488 562 34,100  Climbing Memphis Center
Mon 10:28:32 PM 36.1722 -87.9194 234° Southwest 488 562 34,000 -50 Descending Memphis Center
Mon 10:29:32 PM 36.0975 -88.0553 236° Southwest 488 562 34,000  Level Memphis Center
Mon 10:30:32 PM 36.0331 -88.1728 236° Southwest 477 549 34,000  Level Memphis Center
Mon 10:31:32 PM 35.9581 -88.3056 235° Southwest 477 549 34,000  Level Memphis Center
Mon 10:32:32 PM 35.8789 -88.4381 234° Southwest 477 549 34,000 50 Level Memphis Center
Mon 10:33:32 PM 35.8017 -88.5756 235° Southwest 483 556 34,100 50 Climbing Memphis Center
Mon 10:34:33 PM 35.7161 -88.7231 234° Southwest 488 562 34,100 -50 Level Memphis Center
Mon 10:35:32 PM 35.6406 -88.8575 235° Southwest 488 562 34,000 -50 Descending Memphis Center
Mon 10:36:32 PM 35.5631 -88.9917 235° Southwest 481 554 34,000 33 Level Memphis Center
Mon 10:38:32 PM 35.4114 -89.2539 235° Southwest 481 554 34,100  Climbing Memphis Center
Mon 10:39:32 PM 35.3372 -89.3797 234° Southwest 473 544 34,000 -33 Descending Memphis Center
Mon 10:41:32 PM 35.1867 -89.6331 234° Southwest 467 537 34,000  Level Memphis Center
Mon 10:42:32 PM 35.1122 -89.7631 235° Southwest 467 537 34,000  Level Memphis Center
Mon 10:44:32 PM 34.9611 -90.0200 234° Southwest 473 544 34,000  Level Memphis Center
Mon 10:45:32 PM 34.8842 -90.1469 234° Southwest 473 544 34,000  Level Memphis Center
Mon 10:46:32 PM 34.8069 -90.2711 233° Southwest 463 533 34,000 50 Level Memphis Center
Mon 10:47:32 PM 34.7319 -90.3925 233° Southwest 455 524 34,100  Climbing Memphis Center
Mon 10:48:32 PM 34.6589 -90.5111 233° Southwest 455 524 34,000 -50 Descending Memphis Center
Mon 10:49:32 PM 34.5794 -90.6294 231° Southwest 450 518 34,000  Level Memphis Center
Mon 10:50:32 PM 34.5081 -90.7453 233° Southwest 441 507 34,000  Level Memphis Center
Mon 10:51:32 PM 34.4408 -90.8683 237° Southwest 436 502 34,000  Level Memphis Center
Mon 10:52:32 PM 34.3778 -90.9711 233° Southwest 436 502 34,000  Level Memphis Center
Mon 10:53:32 PM 34.3019 -91.0889 232° Southwest 436 502 34,000  Level Memphis Center
Mon 10:54:32 PM 34.2347 -91.2039 235° Southwest 436 502 34,000  Level Memphis Center
Mon 10:56:32 PM 34.0908 -91.4331 233° Southwest 432 497 34,000 33 Level Memphis Center
Mon 10:57:32 PM 34.0211 -91.5450 233° Southwest 432 497 34,100  Climbing Memphis Center
Mon 10:58:33 PM 33.9469 -91.6592 232° Southwest 432 497 34,000 -50 Descending Memphis Center
Mon 10:59:32 PM 33.8831 -91.7733 236° Southwest 426 490 34,000  Level Memphis Center
Mon 11:01:16 PM 33.7531 -91.9753 232° Southwest 418 481 34,000 37 Level Fort Worth Center
Mon 11:02:16 PM 33.6828 -92.0869 233° Southwest 423 487 34,100  Climbing Fort Worth Center
Mon 11:03:16 PM 33.6142 -92.1983 234° Southwest 423 487 34,000 -50 Descending Fort Worth Center
Mon 11:04:16 PM 33.5436 -92.3072 232° Southwest 423 487 34,000  Level Fort Worth Center
Mon 11:05:16 PM 33.4728 -92.4158 232° Southwest 423 487 34,000  Level Fort Worth Center
Mon 11:06:16 PM 33.4019 -92.5244 232° Southwest 423 487 34,000  Level Fort Worth Center
Mon 11:07:16 PM 33.3311 -92.6325 232° Southwest 423 487 34,000  Level Fort Worth Center
Mon 11:08:16 PM 33.2619 -92.7381 232° Southwest 423 487 34,000  Level Fort Worth Center
Mon 11:09:16 PM 33.1972 -92.8508 236° Southwest 423 487 34,000  Level Fort Worth Center
Mon 11:10:16 PM 33.1472 -92.9675 243° Southwest 417 480 34,000  Level Fort Worth Center
Mon 11:11:16 PM 33.1097 -93.0908 250° West 406 467 34,000  Level Fort Worth Center
Mon 11:12:16 PM 33.0594 -93.2072 243° Southwest 400 460 34,000  Level Fort Worth Center
Mon 11:13:16 PM 33.0006 -93.3217 238° Southwest 405 466 34,000  Level Fort Worth Center
Mon 11:14:16 PM 32.9439 -93.4356 239° Southwest 410 472 34,000  Level Fort Worth Center
Mon 11:15:16 PM 32.8892 -93.5567 242° Southwest 410 472 34,000  Level Fort Worth Center
Mon 11:16:16 PM 32.8461 -93.6500 241° Southwest 410 472 34,000  Level Fort Worth Center
Mon 11:17:16 PM 32.7853 -93.7811 241° Southwest 410 472 34,000  Level Fort Worth Center
Mon 11:18:16 PM 32.7217 -93.8947 236° Southwest 420 483 34,000  Level Fort Worth Center
Mon 11:19:16 PM 32.6475 -94.0061 232° Southwest 425 489 34,000 50 Level Fort Worth Center
Mon 11:20:16 PM 32.5753 -94.1150 232° Southwest 425 489 34,100  Climbing Fort Worth Center
Mon 11:21:16 PM 32.5072 -94.2308 235° Southwest 430 495 34,000 -50 Descending Fort Worth Center
Mon 11:22:16 PM 32.4392 -94.3439 235° Southwest 430 495 34,000  Level Fort Worth Center
Mon 11:23:16 PM 32.3686 -94.4569 234° Southwest 430 495 34,000  Level Fort Worth Center
Mon 11:24:16 PM 32.2983 -94.5697 234° Southwest 435 501 34,000  Level Fort Worth Center
Mon 11:25:16 PM 32.2256 -94.6825 233° Southwest 435 501 34,000  Level Fort Worth Center
Mon 11:26:16 PM 32.1614 -94.8022 238° Southwest 435 501 34,000  Level Fort Worth Center
Mon 11:27:16 PM 32.0906 -94.9147 233° Southwest 435 501 34,000  Level Fort Worth Center
Mon 11:28:16 PM 32.0156 -95.0319 233° Southwest 440 506 34,000  Level Fort Worth Center
Mon 11:29:16 PM 31.9444 -95.1439 233° Southwest 440 506 34,000  Level Fort Worth Center
Mon 11:30:16 PM 31.8756 -95.2581 235° Southwest 440 506 34,000  Level Fort Worth Center
Mon 11:31:16 PM 31.8022 -95.3675 232° Southwest 440 506 34,000  Level Fort Worth Center
Mon 11:32:55 PM 31.6869 -95.5428 232° Southwest 425 489 34,000  Level Houston Center
Mon 11:33:56 PM 31.6028 -95.6731 233° Southwest 421 484 34,000  Level Houston Center
Mon 11:34:57 PM 31.5325 -95.7814 233° Southwest 420 483 34,000  Level Houston Center
Mon 11:35:58 PM 31.4622 -95.8897 233° Southwest 419 482 34,000  Level Houston Center
Mon 11:36:58 PM 31.3917 -95.9978 233° Southwest 420 483 34,000  Level Houston Center
Mon 11:37:59 PM 31.3181 -96.1072 232° Southwest 420 483 34,000  Level Houston Center
Mon 11:39:00 PM 31.2458 -96.2161 232° Southwest 420 483 34,000  Level Houston Center
Mon 11:40:00 PM 31.1744 -96.3275 233° Southwest 422 486 34,000  Level Houston Center
Mon 11:41:01 PM 31.1036 -96.4389 233° Southwest 423 487 34,000  Level Houston Center
Mon 11:42:02 PM 31.0319 -96.5500 233° Southwest 423 487 34,000 -197 Level Houston Center
Mon 11:43:03 PM 30.9581 -96.6597 232° Southwest 423 487 33,600 -942 Descending Houston Center
Mon 11:44:03 PM 30.8856 -96.7694 232° Southwest 423 487 32,100 -1,587 Descending Houston Center
Mon 11:45:04 PM 30.8144 -96.8797 233° Southwest 420 483 30,400 -1,820 Descending Houston Center
Mon 11:46:05 PM 30.7511 -96.9708 231° Southwest 425 489 28,400 -2,281 Descending Houston Center
Mon 11:47:05 PM 30.6778 -97.0822 233° Southwest 425 489 25,800 -2,628 Descending Houston Center
Mon 11:48:06 PM 30.6097 -97.1892 234° Southwest 408 470 23,100 -2,607 Descending Houston Center
Mon 11:49:07 PM 30.5411 -97.2908 232° Southwest 396 456 20,500 -2,331 Descending Houston Center
Mon 11:50:07 PM 30.4767 -97.3831 231° Southwest 368 423 18,400 -1,835 Descending Houston Center
Mon 11:51:08 PM 30.4164 -97.4728 232° Southwest 351 404 16,800 -1,190 Descending Houston Center
Mon 11:52:08 PM 30.3564 -97.5603 232° Southwest 343 395 16,000 -793 Descending Houston Center
Mon 11:53:09 PM 30.2750 -97.6161 211° Southwest 340 391 15,200 -738 Descending Houston Center
Mon 11:54:10 PM 30.1881 -97.6611 204° Southwest 341 392 14,500 -744 Descending Houston Center
Mon 11:55:10 PM 30.1044 -97.7139 209° Southwest 339 390 13,700 -743 Descending Houston Center
Mon 11:56:03 PM 30.0244 -97.7708 212° Southwest 340 391 13,100 -356 Descending Houston Center
Mon 11:56:51 PM 29.9639 -97.8172 214° Southwest 340 391 13,100 -88 Level Houston Center
Mon 11:57:11 PM 29.9333 -97.8394 212° Southwest 337 388 13,000 -590 Descending Houston Center
Mon 11:57:52 PM 29.8853 -97.8731 211° Southwest 333 383 12,500 -885 Descending Houston Center
Mon 11:58:12 PM 29.8592 -97.8958 217° Southwest 321 369 12,100 -1,500 Descending Houston Center
Mon 11:58:52 PM 29.8292 -97.9475 236° Southwest 282 325 11,000 -1,600 Descending Houston Center
Mon 11:59:12 PM 29.8183 -97.9731 244° Southwest 280 322 10,500 -1,574 Descending Houston Center
Mon 11:59:53 PM 29.8078 -98.0297 258° West 260 299 9,400 -1,672 Descending Houston Center
Tue 12:00:13 AM 29.8036 -98.0556 259° West 263 303 8,800 -1,900 Descending Houston Center
Tue 12:00:53 AM 29.8008 -98.1125 267° West 259 298 7,500 -1,869 Descending Houston Center
Tue 12:01:14 AM 29.7986 -98.1386 264° West 262 302 6,900 -1,279 Descending Houston Center
Tue 12:01:54 AM 29.7811 -98.1944 250° West 271 312 6,200 -900 Descending Houston Center
Tue 12:02:14 AM 29.7706 -98.2181 243° Southwest 269 310 6,000 -197 Descending Houston Center
Tue 12:02:55 AM 29.7483 -98.2683 243° Southwest 262 302 6,000 -500 Level Houston Center
Tue 12:03:14 AM 29.7328 -98.2953 236° Southwest 258 297 5,500 -1,500 Descending Houston Center
Tue 12:03:55 AM 29.7103 -98.3356 237° Southwest 243 280 4,500 -1,279 Descending Houston Center
Tue 12:04:15 AM 29.6950 -98.3567 230° Southwest 237 273 4,200 -492 Descending Houston Center
Tue 12:04:56 AM 29.6783 -98.3969 245° Southwest 229 264 4,000 -200 Descending Houston Center
Tue 12:05:15 AM 29.6700 -98.4225 249° West 228 262 4,000 -700 Level Houston Center
Tue 12:05:56 AM 29.6575 -98.4694 253° West 220 253 3,300 -984 Descending Houston Center
Tue 12:06:16 AM 29.6525 -98.4900 254° West 227 261 3,000 -393 Descending Houston Center
Tue 12:06:57 AM 29.6408 -98.5386 255° West 223 257 2,900 -197 Descending Houston Center
Tue 12:07:17 AM 29.6342 -98.5564 247° West 219 252 2,800 -98 Descending Houston Center
Tue 12:07:58 AM 29.6014 -98.5675 196° South 193 222 2,800 -400 Level Houston Center
Tue 12:08:17 AM 29.5942 -98.5525 119° Southeast 183 211 2,400 -889 Descending Houston Center
Tue 12:08:52 AM 29.5794 -98.5317 129° Southeast 133 153 2,000 -700 Descending Houston Center
Tue 12:09:17 AM 29.5697 -98.5194 132° Southeast 140 161 1,700 -689 Descending Houston Center
Tue 12:09:53 AM 29.5558 -98.5031 134° Southeast 117 135 1,300 -787 Descending Houston Center
Tue 12:10:18 AM 29.5461 -98.4878 126° Southeast 125 144 900 -960 Descending Houston Center
Tue 12:12:00 AM 29.5333 -98.4667 125° Southeast  Level FlightAware Approximate
Tue 12:19:00 AM 29.5340 -98.4691 125° Southeast  Level Estimated

Login

Don't have an account? Register now (free) for customized features, flight alerts, and more!